sensor_id;sensor_type;location;lat;lon;timestamp;temperature;humidity
16829;DHT22;8531;48.078;11.968;2023-04-03T00:01:13;2.30;99.90
16829;DHT22;8531;48.078;11.968;2023-04-03T00:03:39;2.30;99.90
16829;DHT22;8531;48.078;11.968;2023-04-03T00:06:07;2.30;99.90
16829;DHT22;8531;48.078;11.968;2023-04-03T00:08:34;2.20;99.90
16829;DHT22;8531;48.078;11.968;2023-04-03T00:11:00;2.30;99.90
16829;DHT22;8531;48.078;11.968;2023-04-03T00:13:26;2.20;99.90
16829;DHT22;8531;48.078;11.968;2023-04-03T00:15:53;2.30;99.90
16829;DHT22;8531;48.078;11.968;2023-04-03T00:18:19;2.30;99.90
16829;DHT22;8531;48.078;11.968;2023-04-03T00:20:45;2.30;99.90
16829;DHT22;8531;48.078;11.968;2023-04-03T00:23:11;2.20;99.90
16829;DHT22;8531;48.078;11.968;2023-04-03T00:25:36;2.30;99.90
16829;DHT22;8531;48.078;11.968;2023-04-03T00:28:03;2.40;99.90
16829;DHT22;8531;48.078;11.968;2023-04-03T00:30:29;2.50;99.90
16829;DHT22;8531;48.078;11.968;2023-04-03T00:32:55;2.40;99.90
16829;DHT22;8531;48.078;11.968;2023-04-03T00:35:22;2.50;99.90
16829;DHT22;8531;48.078;11.968;2023-04-03T00:37:48;2.60;99.90
16829;DHT22;8531;48.078;11.968;2023-04-03T00:40:16;2.40;99.90
16829;DHT22;8531;48.078;11.968;2023-04-03T00:42:43;2.50;99.90
16829;DHT22;8531;48.078;11.968;2023-04-03T00:45:27;2.60;99.90
16829;DHT22;8531;48.078;11.968;2023-04-03T00:47:53;2.40;99.90
16829;DHT22;8531;48.078;11.968;2023-04-03T00:50:19;2.60;99.90
16829;DHT22;8531;48.078;11.968;2023-04-03T00:52:45;2.70;99.90
16829;DHT22;8531;48.078;11.968;2023-04-03T00:55:14;2.90;99.90
16829;DHT22;8531;48.078;11.968;2023-04-03T00:57:41;3.00;99.90
16829;DHT22;8531;48.078;11.968;2023-04-03T01:00:10;2.50;99.90
16829;DHT22;8531;48.078;11.968;2023-04-03T01:02:38;2.50;99.90
16829;DHT22;8531;48.078;11.968;2023-04-03T01:05:06;2.50;99.90
16829;DHT22;8531;48.078;11.968;2023-04-03T01:07:33;2.40;99.90
16829;DHT22;8531;48.078;11.968;2023-04-03T01:10:05;2.50;99.90
16829;DHT22;8531;48.078;11.968;2023-04-03T01:15:11;2.70;99.90
16829;DHT22;8531;48.078;11.968;2023-04-03T01:17:51;2.60;99.90
16829;DHT22;8531;48.078;11.968;2023-04-03T01:25:49;2.90;99.90
16829;DHT22;8531;48.078;11.968;2023-04-03T01:28:27;2.80;99.90
16829;DHT22;8531;48.078;11.968;2023-04-03T01:30:57;2.60;99.90
16829;DHT22;8531;48.078;11.968;2023-04-03T01:33:25;2.70;99.90
16829;DHT22;8531;48.078;11.968;2023-04-03T01:35:50;2.70;99.90
16829;DHT22;8531;48.078;11.968;2023-04-03T01:38:16;2.70;99.90
16829;DHT22;8531;48.078;11.968;2023-04-03T01:40:42;2.80;99.90
16829;DHT22;8531;48.078;11.968;2023-04-03T01:43:08;2.70;99.90
16829;DHT22;8531;48.078;11.968;2023-04-03T01:45:33;2.80;99.90
16829;DHT22;8531;48.078;11.968;2023-04-03T01:47:59;2.80;99.90
16829;DHT22;8531;48.078;11.968;2023-04-03T01:50:25;3.00;99.90
16829;DHT22;8531;48.078;11.968;2023-04-03T01:52:50;2.90;99.90
16829;DHT22;8531;48.078;11.968;2023-04-03T01:55:16;3.00;99.90
16829;DHT22;8531;48.078;11.968;2023-04-03T01:57:42;3.00;99.90
16829;DHT22;8531;48.078;11.968;2023-04-03T02:00:08;3.00;99.90
16829;DHT22;8531;48.078;11.968;2023-04-03T02:02:34;2.90;99.90
16829;DHT22;8531;48.078;11.968;2023-04-03T02:05:00;3.10;99.90
16829;DHT22;8531;48.078;11.968;2023-04-03T02:07:26;2.90;99.90
16829;DHT22;8531;48.078;11.968;2023-04-03T02:09:52;2.80;99.90
16829;DHT22;8531;48.078;11.968;2023-04-03T02:12:18;2.90;99.90
16829;DHT22;8531;48.078;11.968;2023-04-03T02:14:44;2.90;99.90
16829;DHT22;8531;48.078;11.968;2023-04-03T02:17:09;2.60;99.90
16829;DHT22;8531;48.078;11.968;2023-04-03T02:19:35;2.60;99.90
16829;DHT22;8531;48.078;11.968;2023-04-03T02:22:02;2.60;99.90
16829;DHT22;8531;48.078;11.968;2023-04-03T02:24:28;2.70;99.90
16829;DHT22;8531;48.078;11.968;2023-04-03T02:26:54;2.70;99.90
16829;DHT22;8531;48.078;11.968;2023-04-03T02:29:20;2.60;99.90
16829;DHT22;8531;48.078;11.968;2023-04-03T02:31:45;2.60;99.90
16829;DHT22;8531;48.078;11.968;2023-04-03T02:34:11;2.50;99.90
16829;DHT22;8531;48.078;11.968;2023-04-03T02:36:37;2.50;99.90
16829;DHT22;8531;48.078;11.968;2023-04-03T02:39:03;2.60;99.90
16829;DHT22;8531;48.078;11.968;2023-04-03T02:41:29;2.60;99.90
16829;DHT22;8531;48.078;11.968;2023-04-03T02:44:00;2.70;99.90
16829;DHT22;8531;48.078;11.968;2023-04-03T02:46:26;2.70;99.90
16829;DHT22;8531;48.078;11.968;2023-04-03T02:48:52;2.50;99.90
16829;DHT22;8531;48.078;11.968;2023-04-03T02:51:17;2.40;99.90
16829;DHT22;8531;48.078;11.968;2023-04-03T02:53:43;2.50;99.90
16829;DHT22;8531;48.078;11.968;2023-04-03T02:56:09;2.50;99.90
16829;DHT22;8531;48.078;11.968;2023-04-03T02:58:34;2.60;99.90
16829;DHT22;8531;48.078;11.968;2023-04-03T03:01:01;2.60;99.90
16829;DHT22;8531;48.078;11.968;2023-04-03T03:03:27;2.80;99.90
16829;DHT22;8531;48.078;11.968;2023-04-03T03:06:10;2.80;99.90
16829;DHT22;8531;48.078;11.968;2023-04-03T03:08:37;2.60;99.90
16829;DHT22;8531;48.078;11.968;2023-04-03T03:11:03;2.60;99.90
16829;DHT22;8531;48.078;11.968;2023-04-03T03:13:29;2.50;99.90
16829;DHT22;8531;48.078;11.968;2023-04-03T03:15:55;2.60;99.90
16829;DHT22;8531;48.078;11.968;2023-04-03T03:18:22;2.70;99.90
16829;DHT22;8531;48.078;11.968;2023-04-03T03:20:57;2.80;99.90
16829;DHT22;8531;48.078;11.968;2023-04-03T03:23:24;2.70;99.90
16829;DHT22;8531;48.078;11.968;2023-04-03T03:25:58;2.70;99.90
16829;DHT22;8531;48.078;11.968;2023-04-03T03:28:24;2.60;99.90
16829;DHT22;8531;48.078;11.968;2023-04-03T03:30:49;2.60;99.90
16829;DHT22;8531;48.078;11.968;2023-04-03T03:33:16;2.50;99.90
16829;DHT22;8531;48.078;11.968;2023-04-03T03:35:42;2.70;99.90
16829;DHT22;8531;48.078;11.968;2023-04-03T03:38:08;2.70;99.90
16829;DHT22;8531;48.078;11.968;2023-04-03T03:40:34;2.80;99.90
16829;DHT22;8531;48.078;11.968;2023-04-03T03:43:00;2.80;99.90
16829;DHT22;8531;48.078;11.968;2023-04-03T03:45:26;2.90;99.90
16829;DHT22;8531;48.078;11.968;2023-04-03T03:47:52;2.90;99.90
16829;DHT22;8531;48.078;11.968;2023-04-03T03:50:18;2.90;99.90
16829;DHT22;8531;48.078;11.968;2023-04-03T03:52:44;2.90;99.90
16829;DHT22;8531;48.078;11.968;2023-04-03T03:55:10;2.90;99.90
16829;DHT22;8531;48.078;11.968;2023-04-03T03:57:36;3.00;99.90
16829;DHT22;8531;48.078;11.968;2023-04-03T04:00:02;2.90;99.90
16829;DHT22;8531;48.078;11.968;2023-04-03T04:02:28;2.90;99.90
16829;DHT22;8531;48.078;11.968;2023-04-03T04:04:54;2.90;99.90
16829;DHT22;8531;48.078;11.968;2023-04-03T04:07:20;2.80;99.90
16829;DHT22;8531;48.078;11.968;2023-04-03T04:09:45;2.90;99.90
16829;DHT22;8531;48.078;11.968;2023-04-03T04:12:11;2.80;99.90
16829;DHT22;8531;48.078;11.968;2023-04-03T04:14:37;2.90;99.90
16829;DHT22;8531;48.078;11.968;2023-04-03T04:17:02;2.90;99.90
16829;DHT22;8531;48.078;11.968;2023-04-03T04:19:28;2.90;99.90
16829;DHT22;8531;48.078;11.968;2023-04-03T04:21:54;3.00;99.90
16829;DHT22;8531;48.078;11.968;2023-04-03T04:24:20;3.10;99.90
16829;DHT22;8531;48.078;11.968;2023-04-03T04:26:48;3.00;99.90
16829;DHT22;8531;48.078;11.968;2023-04-03T04:29:14;2.90;99.90
16829;DHT22;8531;48.078;11.968;2023-04-03T04:31:40;2.80;99.90
16829;DHT22;8531;48.078;11.968;2023-04-03T04:34:05;2.80;99.90
16829;DHT22;8531;48.078;11.968;2023-04-03T04:36:31;2.80;99.90
16829;DHT22;8531;48.078;11.968;2023-04-03T04:38:57;2.80;99.90
16829;DHT22;8531;48.078;11.968;2023-04-03T04:41:23;2.70;99.90
16829;DHT22;8531;48.078;11.968;2023-04-03T04:43:50;2.60;99.90
16829;DHT22;8531;48.078;11.968;2023-04-03T04:46:16;2.60;99.90
16829;DHT22;8531;48.078;11.968;2023-04-03T04:48:42;2.60;99.90
16829;DHT22;8531;48.078;11.968;2023-04-03T04:51:08;2.70;99.90
16829;DHT22;8531;48.078;11.968;2023-04-03T04:53:34;2.80;99.90
16829;DHT22;8531;48.078;11.968;2023-04-03T04:56:00;2.80;99.90
16829;DHT22;8531;48.078;11.968;2023-04-03T04:58:25;2.80;99.90
16829;DHT22;8531;48.078;11.968;2023-04-03T05:01:07;2.80;99.90
16829;DHT22;8531;48.078;11.968;2023-04-03T05:03:33;2.90;99.90
16829;DHT22;8531;48.078;11.968;2023-04-03T05:05:59;2.90;99.90
16829;DHT22;8531;48.078;11.968;2023-04-03T05:08:26;2.90;99.90
16829;DHT22;8531;48.078;11.968;2023-04-03T05:10:52;2.90;99.90
16829;DHT22;8531;48.078;11.968;2023-04-03T05:13:18;2.90;99.90
16829;DHT22;8531;48.078;11.968;2023-04-03T05:15:45;2.80;99.90
16829;DHT22;8531;48.078;11.968;2023-04-03T05:18:10;2.90;99.90
16829;DHT22;8531;48.078;11.968;2023-04-03T05:20:36;2.80;99.90
16829;DHT22;8531;48.078;11.968;2023-04-03T05:23:02;2.90;99.90
16829;DHT22;8531;48.078;11.968;2023-04-03T05:25:29;2.80;99.90
16829;DHT22;8531;48.078;11.968;2023-04-03T05:27:55;2.70;99.90
16829;DHT22;8531;48.078;11.968;2023-04-03T05:30:21;2.60;99.90
16829;DHT22;8531;48.078;11.968;2023-04-03T05:32:46;2.70;99.90
16829;DHT22;8531;48.078;11.968;2023-04-03T05:35:12;2.80;99.90
16829;DHT22;8531;48.078;11.968;2023-04-03T05:37:38;2.90;99.90
16829;DHT22;8531;48.078;11.968;2023-04-03T05:40:05;3.00;99.90
16829;DHT22;8531;48.078;11.968;2023-04-03T05:42:31;3.00;99.90
16829;DHT22;8531;48.078;11.968;2023-04-03T05:44:56;3.10;99.90
16829;DHT22;8531;48.078;11.968;2023-04-03T05:47:22;2.80;99.90
16829;DHT22;8531;48.078;11.968;2023-04-03T05:49:48;2.80;99.90
16829;DHT22;8531;48.078;11.968;2023-04-03T05:52:21;2.70;99.90
16829;DHT22;8531;48.078;11.968;2023-04-03T05:54:47;2.80;99.90
16829;DHT22;8531;48.078;11.968;2023-04-03T05:57:14;2.80;99.90
16829;DHT22;8531;48.078;11.968;2023-04-03T05:59:42;2.90;99.90
16829;DHT22;8531;48.078;11.968;2023-04-03T06:02:10;3.00;99.90
16829;DHT22;8531;48.078;11.968;2023-04-03T06:04:36;3.10;99.90
16829;DHT22;8531;48.078;11.968;2023-04-03T06:07:02;2.90;99.90
16829;DHT22;8531;48.078;11.968;2023-04-03T06:09:28;3.00;99.90
16829;DHT22;8531;48.078;11.968;2023-04-03T06:11:54;2.90;99.90
16829;DHT22;8531;48.078;11.968;2023-04-03T06:14:20;2.90;99.90
16829;DHT22;8531;48.078;11.968;2023-04-03T06:16:46;2.90;99.90
16829;DHT22;8531;48.078;11.968;2023-04-03T06:19:12;3.00;99.90
16829;DHT22;8531;48.078;11.968;2023-04-03T06:21:38;3.10;99.90
16829;DHT22;8531;48.078;11.968;2023-04-03T06:24:06;3.20;99.90
16829;DHT22;8531;48.078;11.968;2023-04-03T06:26:32;3.10;99.90
16829;DHT22;8531;48.078;11.968;2023-04-03T06:28:59;3.00;99.90
16829;DHT22;8531;48.078;11.968;2023-04-03T06:31:25;3.00;99.90
16829;DHT22;8531;48.078;11.968;2023-04-03T06:33:50;2.90;99.90
16829;DHT22;8531;48.078;11.968;2023-04-03T06:36:18;2.80;99.90
16829;DHT22;8531;48.078;11.968;2023-04-03T06:38:46;2.90;99.90
16829;DHT22;8531;48.078;11.968;2023-04-03T06:41:12;2.90;99.90
16829;DHT22;8531;48.078;11.968;2023-04-03T06:43:37;3.00;99.90
16829;DHT22;8531;48.078;11.968;2023-04-03T06:46:03;3.20;99.90
16829;DHT22;8531;48.078;11.968;2023-04-03T06:48:29;3.10;99.90
16829;DHT22;8531;48.078;11.968;2023-04-03T06:50:55;3.20;99.90
16829;DHT22;8531;48.078;11.968;2023-04-03T06:53:21;3.20;99.90
16829;DHT22;8531;48.078;11.968;2023-04-03T06:55:47;3.30;99.90
16829;DHT22;8531;48.078;11.968;2023-04-03T06:58:13;3.20;99.90
16829;DHT22;8531;48.078;11.968;2023-04-03T07:00:40;3.20;99.90
16829;DHT22;8531;48.078;11.968;2023-04-03T07:03:08;3.30;99.90
16829;DHT22;8531;48.078;11.968;2023-04-03T07:05:33;3.50;99.90
16829;DHT22;8531;48.078;11.968;2023-04-03T07:07:59;3.60;99.90
16829;DHT22;8531;48.078;11.968;2023-04-03T07:10:25;3.50;99.90
16829;DHT22;8531;48.078;11.968;2023-04-03T07:12:50;3.60;99.90
16829;DHT22;8531;48.078;11.968;2023-04-03T07:15:16;3.70;99.90
16829;DHT22;8531;48.078;11.968;2023-04-03T07:17:42;3.70;99.90
16829;DHT22;8531;48.078;11.968;2023-04-03T07:20:08;3.70;99.90
16829;DHT22;8531;48.078;11.968;2023-04-03T07:22:34;3.70;99.90
16829;DHT22;8531;48.078;11.968;2023-04-03T07:25:00;3.60;99.90
16829;DHT22;8531;48.078;11.968;2023-04-03T07:27:26;3.80;99.90
16829;DHT22;8531;48.078;11.968;2023-04-03T07:29:52;3.70;99.90
16829;DHT22;8531;48.078;11.968;2023-04-03T07:32:17;3.60;99.90
16829;DHT22;8531;48.078;11.968;2023-04-03T07:34:43;3.50;99.90
16829;DHT22;8531;48.078;11.968;2023-04-03T07:37:10;3.60;99.90
16829;DHT22;8531;48.078;11.968;2023-04-03T07:39:35;3.80;99.90
16829;DHT22;8531;48.078;11.968;2023-04-03T07:42:01;3.60;99.90
16829;DHT22;8531;48.078;11.968;2023-04-03T07:44:28;3.70;99.90
16829;DHT22;8531;48.078;11.968;2023-04-03T07:46:54;3.70;99.90
16829;DHT22;8531;48.078;11.968;2023-04-03T07:49:22;3.80;99.90
16829;DHT22;8531;48.078;11.968;2023-04-03T07:51:49;3.60;99.90
16829;DHT22;8531;48.078;11.968;2023-04-03T07:54:15;3.60;99.90
16829;DHT22;8531;48.078;11.968;2023-04-03T07:56:41;3.60;99.90
16829;DHT22;8531;48.078;11.968;2023-04-03T07:59:08;3.40;99.90
16829;DHT22;8531;48.078;11.968;2023-04-03T08:01:34;3.40;99.90
16829;DHT22;8531;48.078;11.968;2023-04-03T08:04:00;3.50;99.90
16829;DHT22;8531;48.078;11.968;2023-04-03T08:06:26;3.60;99.90
16829;DHT22;8531;48.078;11.968;2023-04-03T08:08:52;3.60;99.90
16829;DHT22;8531;48.078;11.968;2023-04-03T08:11:18;3.70;99.90
16829;DHT22;8531;48.078;11.968;2023-04-03T08:13:44;3.70;99.90
16829;DHT22;8531;48.078;11.968;2023-04-03T08:16:12;4.00;99.90
16829;DHT22;8531;48.078;11.968;2023-04-03T08:18:38;3.90;99.90
16829;DHT22;8531;48.078;11.968;2023-04-03T08:21:09;4.10;99.90
16829;DHT22;8531;48.078;11.968;2023-04-03T08:23:35;4.00;99.90
16829;DHT22;8531;48.078;11.968;2023-04-03T08:26:06;4.00;99.90
16829;DHT22;8531;48.078;11.968;2023-04-03T08:28:32;4.00;99.90
16829;DHT22;8531;48.078;11.968;2023-04-03T08:31:03;4.10;99.90
16829;DHT22;8531;48.078;11.968;2023-04-03T08:33:30;4.00;99.90
16829;DHT22;8531;48.078;11.968;2023-04-03T08:35:56;4.10;99.90
16829;DHT22;8531;48.078;11.968;2023-04-03T08:38:21;4.20;99.90
16829;DHT22;8531;48.078;11.968;2023-04-03T08:40:47;4.00;99.90
16829;DHT22;8531;48.078;11.968;2023-04-03T08:43:36;4.30;99.90
16829;DHT22;8531;48.078;11.968;2023-04-03T08:46:11;4.40;99.90
16829;DHT22;8531;48.078;11.968;2023-04-03T08:48:42;4.00;99.90
16829;DHT22;8531;48.078;11.968;2023-04-03T08:51:15;4.20;99.90
16829;DHT22;8531;48.078;11.968;2023-04-03T08:53:46;4.00;99.90
16829;DHT22;8531;48.078;11.968;2023-04-03T08:56:15;4.10;99.90
16829;DHT22;8531;48.078;11.968;2023-04-03T08:58:55;4.40;99.90
16829;DHT22;8531;48.078;11.968;2023-04-03T09:03:50;4.60;99.90
16829;DHT22;8531;48.078;11.968;2023-04-03T09:06:26;4.70;99.90
16829;DHT22;8531;48.078;11.968;2023-04-03T09:09:10;4.70;99.90
16829;DHT22;8531;48.078;11.968;2023-04-03T09:12:00;4.60;99.90
16829;DHT22;8531;48.078;11.968;2023-04-03T09:14:43;4.60;99.90
16829;DHT22;8531;48.078;11.968;2023-04-03T09:17:20;4.70;99.90
16829;DHT22;8531;48.078;11.968;2023-04-03T09:19:57;4.70;99.90
16829;DHT22;8531;48.078;11.968;2023-04-03T09:22:25;4.80;99.90
16829;DHT22;8531;48.078;11.968;2023-04-03T09:27:41;4.90;99.90
16829;DHT22;8531;48.078;11.968;2023-04-03T09:30:20;5.00;99.90
16829;DHT22;8531;48.078;11.968;2023-04-03T09:32:48;5.00;99.90
16829;DHT22;8531;48.078;11.968;2023-04-03T09:35:29;4.90;99.90
16829;DHT22;8531;48.078;11.968;2023-04-03T09:40:45;4.80;99.90
16829;DHT22;8531;48.078;11.968;2023-04-03T09:45:44;4.70;99.90
16829;DHT22;8531;48.078;11.968;2023-04-03T09:53:28;4.80;99.90
16829;DHT22;8531;48.078;11.968;2023-04-03T09:55:55;4.90;99.90
16829;DHT22;8531;48.078;11.968;2023-04-03T09:58:30;4.90;99.90
16829;DHT22;8531;48.078;11.968;2023-04-03T10:00:59;4.90;99.90
16829;DHT22;8531;48.078;11.968;2023-04-03T10:03:31;5.00;99.90
16829;DHT22;8531;48.078;11.968;2023-04-03T10:05:58;4.90;99.90
16829;DHT22;8531;48.078;11.968;2023-04-03T10:13:53;5.00;99.90
16829;DHT22;8531;48.078;11.968;2023-04-03T10:16:24;5.00;99.90
16829;DHT22;8531;48.078;11.968;2023-04-03T10:21:46;5.00;99.90
16829;DHT22;8531;48.078;11.968;2023-04-03T10:24:28;4.80;99.90
16829;DHT22;8531;48.078;11.968;2023-04-03T10:27:08;4.90;99.90
16829;DHT22;8531;48.078;11.968;2023-04-03T10:38:07;4.20;99.90
16829;DHT22;8531;48.078;11.968;2023-04-03T10:40:45;3.90;99.90
16829;DHT22;8531;48.078;11.968;2023-04-03T10:46:36;3.70;99.90
16829;DHT22;8531;48.078;11.968;2023-04-03T10:49:45;3.60;99.90
16829;DHT22;8531;48.078;11.968;2023-04-03T10:55:05;3.60;99.90
16829;DHT22;8531;48.078;11.968;2023-04-03T10:57:32;3.70;99.90
16829;DHT22;8531;48.078;11.968;2023-04-03T11:00:04;3.80;99.90
16829;DHT22;8531;48.078;11.968;2023-04-03T11:02:41;3.90;99.90
16829;DHT22;8531;48.078;11.968;2023-04-03T11:05:59;4.00;99.90
16829;DHT22;8531;48.078;11.968;2023-04-03T11:08:04;4.10;99.90
16829;DHT22;8531;48.078;11.968;2023-04-03T11:10:48;4.10;99.90
16829;DHT22;8531;48.078;11.968;2023-04-03T11:13:19;4.20;99.90
16829;DHT22;8531;48.078;11.968;2023-04-03T11:15:49;4.10;99.90
16829;DHT22;8531;48.078;11.968;2023-04-03T11:18:19;4.20;99.90
16829;DHT22;8531;48.078;11.968;2023-04-03T11:21:00;4.20;99.90
16829;DHT22;8531;48.078;11.968;2023-04-03T11:23:30;4.50;99.90
16829;DHT22;8531;48.078;11.968;2023-04-03T11:26:21;4.60;99.90
16829;DHT22;8531;48.078;11.968;2023-04-03T11:28:52;4.20;99.90
16829;DHT22;8531;48.078;11.968;2023-04-03T11:37:00;4.00;99.90
16829;DHT22;8531;48.078;11.968;2023-04-03T11:39:34;3.90;99.90
16829;DHT22;8531;48.078;11.968;2023-04-03T11:42:24;3.80;99.90
16829;DHT22;8531;48.078;11.968;2023-04-03T11:47:54;3.60;99.90
16829;DHT22;8531;48.078;11.968;2023-04-03T11:55:54;3.60;99.90
16829;DHT22;8531;48.078;11.968;2023-04-03T11:58:33;3.70;99.90
16829;DHT22;8531;48.078;11.968;2023-04-03T12:01:07;3.70;99.90
16829;DHT22;8531;48.078;11.968;2023-04-03T12:08:52;4.10;99.90
16829;DHT22;8531;48.078;11.968;2023-04-03T12:11:32;4.20;99.90
16829;DHT22;8531;48.078;11.968;2023-04-03T12:16:33;4.30;99.90
16829;DHT22;8531;48.078;11.968;2023-04-03T12:19:02;4.50;99.90
16829;DHT22;8531;48.078;11.968;2023-04-03T12:26:50;4.80;99.90
16829;DHT22;8531;48.078;11.968;2023-04-03T12:29:33;5.00;99.90
16829;DHT22;8531;48.078;11.968;2023-04-03T12:35:03;4.80;99.90
16829;DHT22;8531;48.078;11.968;2023-04-03T12:37:41;5.00;99.90
16829;DHT22;8531;48.078;11.968;2023-04-03T12:48:53;4.90;99.90
16829;DHT22;8531;48.078;11.968;2023-04-03T12:51:37;4.90;99.90
16829;DHT22;8531;48.078;11.968;2023-04-03T12:54:30;5.00;99.90
16829;DHT22;8531;48.078;11.968;2023-04-03T12:57:20;5.20;99.90
16829;DHT22;8531;48.078;11.968;2023-04-03T12:59:47;5.30;99.90
16829;DHT22;8531;48.078;11.968;2023-04-03T13:02:28;5.50;99.90
16829;DHT22;8531;48.078;11.968;2023-04-03T13:04:57;5.60;99.90
16829;DHT22;8531;48.078;11.968;2023-04-03T13:07:36;5.70;99.90
16829;DHT22;8531;48.078;11.968;2023-04-03T13:12:34;6.00;99.90
16829;DHT22;8531;48.078;11.968;2023-04-03T13:15:17;6.20;99.90
16829;DHT22;8531;48.078;11.968;2023-04-03T13:17:43;6.20;99.90
16829;DHT22;8531;48.078;11.968;2023-04-03T13:20:17;6.60;99.90
16829;DHT22;8531;48.078;11.968;2023-04-03T13:25:33;6.80;99.90
16829;DHT22;8531;48.078;11.968;2023-04-03T13:28:01;6.50;99.90
16829;DHT22;8531;48.078;11.968;2023-04-03T13:30:32;6.20;99.90
16829;DHT22;8531;48.078;11.968;2023-04-03T13:33:01;6.00;99.90
16829;DHT22;8531;48.078;11.968;2023-04-03T13:37:56;5.90;99.90
16829;DHT22;8531;48.078;11.968;2023-04-03T13:40:22;5.70;99.90
16829;DHT22;8531;48.078;11.968;2023-04-03T13:43:16;5.60;99.90
16829;DHT22;8531;48.078;11.968;2023-04-03T13:48:26;5.70;99.90
16829;DHT22;8531;48.078;11.968;2023-04-03T13:51:02;5.60;99.90
16829;DHT22;8531;48.078;11.968;2023-04-03T13:53:30;5.70;99.90
16829;DHT22;8531;48.078;11.968;2023-04-03T13:56:07;5.70;99.90
16829;DHT22;8531;48.078;11.968;2023-04-03T13:58:36;5.80;99.90
16829;DHT22;8531;48.078;11.968;2023-04-03T14:01:19;5.80;99.90
16829;DHT22;8531;48.078;11.968;2023-04-03T14:04:00;5.50;99.90
16829;DHT22;8531;48.078;11.968;2023-04-03T14:06:27;5.70;99.90
16829;DHT22;8531;48.078;11.968;2023-04-03T14:08:53;5.90;99.90
16829;DHT22;8531;48.078;11.968;2023-04-03T14:11:24;5.80;99.90
16829;DHT22;8531;48.078;11.968;2023-04-03T14:13:53;5.80;99.90
16829;DHT22;8531;48.078;11.968;2023-04-03T14:16:23;5.70;99.90
16829;DHT22;8531;48.078;11.968;2023-04-03T14:18:51;6.00;99.90
16829;DHT22;8531;48.078;11.968;2023-04-03T14:21:19;6.20;99.90
16829;DHT22;8531;48.078;11.968;2023-04-03T14:23:45;6.40;99.90
16829;DHT22;8531;48.078;11.968;2023-04-03T14:26:20;6.30;99.90
16829;DHT22;8531;48.078;11.968;2023-04-03T14:28:49;6.30;99.90
16829;DHT22;8531;48.078;11.968;2023-04-03T14:31:16;6.50;99.90
16829;DHT22;8531;48.078;11.968;2023-04-03T14:33:43;6.40;99.90
16829;DHT22;8531;48.078;11.968;2023-04-03T14:36:17;6.30;99.90
16829;DHT22;8531;48.078;11.968;2023-04-03T14:38:45;6.30;99.90
16829;DHT22;8531;48.078;11.968;2023-04-03T14:41:18;6.40;99.90
16829;DHT22;8531;48.078;11.968;2023-04-03T14:43:45;6.40;99.90
16829;DHT22;8531;48.078;11.968;2023-04-03T14:46:49;6.30;99.90
16829;DHT22;8531;48.078;11.968;2023-04-03T14:49:25;6.20;99.90
16829;DHT22;8531;48.078;11.968;2023-04-03T14:51:51;6.00;99.90
16829;DHT22;8531;48.078;11.968;2023-04-03T14:54:20;5.80;99.90
16829;DHT22;8531;48.078;11.968;2023-04-03T14:56:51;5.80;99.90
16829;DHT22;8531;48.078;11.968;2023-04-03T14:59:18;5.80;99.90
16829;DHT22;8531;48.078;11.968;2023-04-03T15:01:45;5.90;99.90
16829;DHT22;8531;48.078;11.968;2023-04-03T15:04:14;6.10;99.90
16829;DHT22;8531;48.078;11.968;2023-04-03T15:06:41;6.30;99.90
16829;DHT22;8531;48.078;11.968;2023-04-03T15:09:27;6.30;99.90
16829;DHT22;8531;48.078;11.968;2023-04-03T15:11:54;6.30;99.90
16829;DHT22;8531;48.078;11.968;2023-04-03T15:14:21;6.40;99.90
16829;DHT22;8531;48.078;11.968;2023-04-03T15:16:48;6.40;99.90
16829;DHT22;8531;48.078;11.968;2023-04-03T15:19:14;6.50;99.90
16829;DHT22;8531;48.078;11.968;2023-04-03T15:21:40;6.50;99.90
16829;DHT22;8531;48.078;11.968;2023-04-03T15:24:06;6.60;99.90
16829;DHT22;8531;48.078;11.968;2023-04-03T15:26:32;6.70;99.90
16829;DHT22;8531;48.078;11.968;2023-04-03T15:28:58;6.60;99.90
16829;DHT22;8531;48.078;11.968;2023-04-03T15:31:23;6.50;99.90
16829;DHT22;8531;48.078;11.968;2023-04-03T15:33:49;6.30;99.90
16829;DHT22;8531;48.078;11.968;2023-04-03T15:36:15;6.40;99.90
16829;DHT22;8531;48.078;11.968;2023-04-03T15:38:41;6.40;99.90
16829;DHT22;8531;48.078;11.968;2023-04-03T15:41:06;6.40;99.90
16829;DHT22;8531;48.078;11.968;2023-04-03T15:43:32;6.50;99.90
16829;DHT22;8531;48.078;11.968;2023-04-03T15:45:59;6.50;99.90
16829;DHT22;8531;48.078;11.968;2023-04-03T15:48:27;6.50;99.90
16829;DHT22;8531;48.078;11.968;2023-04-03T15:50:53;6.50;99.90
16829;DHT22;8531;48.078;11.968;2023-04-03T15:53:19;6.50;99.90
16829;DHT22;8531;48.078;11.968;2023-04-03T15:55:45;6.50;99.90
16829;DHT22;8531;48.078;11.968;2023-04-03T15:58:11;6.50;99.90
16829;DHT22;8531;48.078;11.968;2023-04-03T16:00:37;6.40;99.90
16829;DHT22;8531;48.078;11.968;2023-04-03T16:03:10;6.50;99.90
16829;DHT22;8531;48.078;11.968;2023-04-03T16:05:38;6.20;99.90
16829;DHT22;8531;48.078;11.968;2023-04-03T16:08:05;6.20;99.90
16829;DHT22;8531;48.078;11.968;2023-04-03T16:10:33;5.90;99.90
16829;DHT22;8531;48.078;11.968;2023-04-03T16:12:59;5.90;99.90
16829;DHT22;8531;48.078;11.968;2023-04-03T16:15:26;5.80;99.90
16829;DHT22;8531;48.078;11.968;2023-04-03T16:17:52;5.80;99.90
16829;DHT22;8531;48.078;11.968;2023-04-03T16:20:18;5.80;99.90
16829;DHT22;8531;48.078;11.968;2023-04-03T16:22:44;5.80;99.90
16829;DHT22;8531;48.078;11.968;2023-04-03T16:25:11;5.60;99.90
16829;DHT22;8531;48.078;11.968;2023-04-03T16:27:37;5.60;99.90
16829;DHT22;8531;48.078;11.968;2023-04-03T16:30:04;5.50;99.90
16829;DHT22;8531;48.078;11.968;2023-04-03T16:32:31;5.40;99.90
16829;DHT22;8531;48.078;11.968;2023-04-03T16:34:58;5.40;99.90
16829;DHT22;8531;48.078;11.968;2023-04-03T16:37:24;5.40;99.90
16829;DHT22;8531;48.078;11.968;2023-04-03T16:39:49;5.40;99.90
16829;DHT22;8531;48.078;11.968;2023-04-03T16:42:15;5.40;99.90
16829;DHT22;8531;48.078;11.968;2023-04-03T16:44:41;5.10;99.90
16829;DHT22;8531;48.078;11.968;2023-04-03T16:47:07;5.10;99.90
16829;DHT22;8531;48.078;11.968;2023-04-03T16:49:33;5.00;99.90
16829;DHT22;8531;48.078;11.968;2023-04-03T16:52:03;5.00;99.90
16829;DHT22;8531;48.078;11.968;2023-04-03T16:54:30;4.90;99.90
16829;DHT22;8531;48.078;11.968;2023-04-03T16:56:56;4.70;99.90
16829;DHT22;8531;48.078;11.968;2023-04-03T16:59:21;4.50;99.90
16829;DHT22;8531;48.078;11.968;2023-04-03T17:01:47;4.60;99.90
16829;DHT22;8531;48.078;11.968;2023-04-03T17:04:13;4.60;99.90
16829;DHT22;8531;48.078;11.968;2023-04-03T17:06:39;4.40;99.90
16829;DHT22;8531;48.078;11.968;2023-04-03T17:09:06;4.30;99.90
16829;DHT22;8531;48.078;11.968;2023-04-03T17:11:32;4.20;99.90
16829;DHT22;8531;48.078;11.968;2023-04-03T17:13:58;4.20;99.90
16829;DHT22;8531;48.078;11.968;2023-04-03T17:16:25;4.10;99.90
16829;DHT22;8531;48.078;11.968;2023-04-03T17:18:52;4.10;99.90
16829;DHT22;8531;48.078;11.968;2023-04-03T17:21:18;4.20;99.90
16829;DHT22;8531;48.078;11.968;2023-04-03T17:23:47;4.10;99.90
16829;DHT22;8531;48.078;11.968;2023-04-03T17:26:14;4.10;99.90
16829;DHT22;8531;48.078;11.968;2023-04-03T17:28:40;4.20;99.90
16829;DHT22;8531;48.078;11.968;2023-04-03T17:31:06;4.20;99.90